createdAt,value
2022-10-14T00:00:26.378Z,14.24
2022-10-14T00:02:54.015Z,14.22
2022-10-14T00:05:22.991Z,14.17
2022-10-14T00:07:50.653Z,14.19
2022-10-14T00:10:18.501Z,14.18
2022-10-14T00:12:47.336Z,14.20
2022-10-14T00:15:15.007Z,14.20
2022-10-14T00:17:42.748Z,14.15
2022-10-14T00:20:10.950Z,14.15
2022-10-14T00:22:39.985Z,14.15
2022-10-14T00:25:08.138Z,14.14
2022-10-14T00:27:35.806Z,14.13
2022-10-14T00:30:03.522Z,14.13
2022-10-14T00:32:31.989Z,14.12
2022-10-14T00:34:59.638Z,14.04
2022-10-14T00:37:27.318Z,13.98
2022-10-14T00:39:57.174Z,13.99
2022-10-14T00:42:25.518Z,13.95
2022-10-14T00:45:01.679Z,13.85
2022-10-14T00:47:30.517Z,13.83
2022-10-14T00:50:00.428Z,13.86
2022-10-14T00:52:28.861Z,13.81
2022-10-14T00:55:02.779Z,13.82
2022-10-14T00:57:30.832Z,13.79
2022-10-14T01:00:03.051Z,13.80
2022-10-14T01:02:31.636Z,13.79
2022-10-14T01:05:00.609Z,13.82
2022-10-14T01:07:38.152Z,13.80
2022-10-14T01:10:15.346Z,13.74
2022-10-14T01:12:55.605Z,13.73
2022-10-14T01:15:31.127Z,13.65
2022-10-14T01:18:11.979Z,13.64
2022-10-14T01:21:08.424Z,13.63
2022-10-14T01:24:33.109Z,13.62
2022-10-14T01:27:18.794Z,13.65
2022-10-14T01:30:01.879Z,13.70
2022-10-14T01:32:32.519Z,13.70
2022-10-14T01:35:05.925Z,13.68
2022-10-14T01:37:37.151Z,13.66
2022-10-14T01:40:13.154Z,13.69
2022-10-14T01:42:44.229Z,13.69
2022-10-14T01:45:18.822Z,13.67
2022-10-14T01:47:51.004Z,13.67
2022-10-14T01:50:23.430Z,13.64
2022-10-14T01:52:55.296Z,13.66
2022-10-14T01:55:26.569Z,13.69
2022-10-14T01:57:58.266Z,13.69
2022-10-14T02:00:27.434Z,13.63
2022-10-14T02:02:55.185Z,13.61
2022-10-14T02:05:29.437Z,13.58
2022-10-14T02:08:04.461Z,13.61
2022-10-14T02:10:50.543Z,13.61
2022-10-14T02:13:35.287Z,13.64
2022-10-14T02:16:19.053Z,13.56
2022-10-14T02:18:52.369Z,13.61
2022-10-14T02:21:25.585Z,13.62
2022-10-14T02:23:58.295Z,13.65
2022-10-14T02:26:27.945Z,13.72
2022-10-14T02:28:57.785Z,13.75
2022-10-14T02:31:29.544Z,13.78
2022-10-14T02:34:01.535Z,13.80
2022-10-14T02:36:30.559Z,13.80
2022-10-14T02:39:01.504Z,13.83
2022-10-14T02:41:33.562Z,13.85
2022-10-14T02:44:01.313Z,13.83
2022-10-14T02:46:30.546Z,13.81
2022-10-14T02:48:58.396Z,13.74
2022-10-14T02:51:26.182Z,13.76
2022-10-14T02:53:53.903Z,13.65
2022-10-14T02:56:22.581Z,13.64
2022-10-14T02:58:50.266Z,13.63
2022-10-14T03:01:17.959Z,13.65
2022-10-14T03:03:46.978Z,13.66
2022-10-14T03:06:14.663Z,13.65
2022-10-14T03:08:42.466Z,13.62
2022-10-14T03:11:10.253Z,13.65
2022-10-14T03:13:37.932Z,13.69
2022-10-14T03:16:06.217Z,13.72
2022-10-14T03:18:33.915Z,13.73
2022-10-14T03:21:02.958Z,13.75
2022-10-14T03:23:30.604Z,13.76
2022-10-14T03:25:58.271Z,13.73
2022-10-14T03:28:25.977Z,13.72
2022-10-14T03:30:53.710Z,13.74
2022-10-14T03:33:24.520Z,13.79
2022-10-14T03:35:56.149Z,13.83
2022-10-14T03:38:25.578Z,13.81
2022-10-14T03:40:53.395Z,13.79
2022-10-14T03:43:21.069Z,13.79
2022-10-14T03:45:48.844Z,13.85
2022-10-14T03:48:16.569Z,13.89
2022-10-14T03:50:44.231Z,13.89
2022-10-14T03:53:12.786Z,13.90
2022-10-14T03:55:41.790Z,13.93
2022-10-14T03:58:11.747Z,13.96
2022-10-14T04:00:39.440Z,13.93
2022-10-14T04:03:07.124Z,13.92
2022-10-14T04:05:34.862Z,13.95
2022-10-14T04:08:03.030Z,13.96
2022-10-14T04:10:31.075Z,13.96
2022-10-14T04:13:00.203Z,13.99
2022-10-14T04:15:27.909Z,13.98
2022-10-14T04:17:56.712Z,13.98
2022-10-14T04:20:24.387Z,13.88
2022-10-14T04:22:52.078Z,13.86
2022-10-14T04:25:19.866Z,13.78
2022-10-14T04:27:47.485Z,13.77
2022-10-14T04:30:16.503Z,13.67
2022-10-14T04:32:44.157Z,13.64
2022-10-14T04:35:11.807Z,13.60
2022-10-14T04:37:39.487Z,13.60
2022-10-14T04:40:07.875Z,13.63
2022-10-14T04:42:35.626Z,13.67
2022-10-14T04:45:03.355Z,13.66
2022-10-14T04:47:32.305Z,13.70
2022-10-14T04:50:00.169Z,13.74
2022-10-14T04:52:27.837Z,13.72
2022-10-14T04:54:55.671Z,13.79
2022-10-14T04:57:23.346Z,13.85
2022-10-14T04:59:51.097Z,13.89
2022-10-14T05:02:18.899Z,13.95
2022-10-14T05:04:48.059Z,14.00
2022-10-14T05:07:16.391Z,14.06
2022-10-14T05:09:48.564Z,14.04
2022-10-14T05:12:17.918Z,13.99
2022-10-14T05:14:45.784Z,13.96
2022-10-14T05:17:13.453Z,13.94
2022-10-14T05:19:41.105Z,13.93
2022-10-14T05:22:10.174Z,13.93
2022-10-14T05:24:37.856Z,13.94
2022-10-14T05:27:05.583Z,13.95
2022-10-14T05:29:33.332Z,13.96
2022-10-14T05:32:01.302Z,13.93
2022-10-14T05:34:29.052Z,13.87
2022-10-14T05:36:56.782Z,13.86
2022-10-14T05:39:25.857Z,13.82
2022-10-14T05:41:55.604Z,13.82
2022-10-14T05:44:23.242Z,13.79
2022-10-14T05:46:50.935Z,13.76
2022-10-14T05:49:18.702Z,13.75
2022-10-14T05:51:46.644Z,13.73
2022-10-14T05:54:14.590Z,13.64
2022-10-14T05:56:43.648Z,13.63
2022-10-14T05:59:12.021Z,13.66
2022-10-14T06:01:43.088Z,13.71
2022-10-14T06:04:18.245Z,13.69
2022-10-14T06:06:46.123Z,13.73
2022-10-14T06:09:14.851Z,13.75
2022-10-14T06:11:43.935Z,13.77
2022-10-14T06:14:11.671Z,13.72
2022-10-14T06:16:39.529Z,13.71
2022-10-14T06:19:07.569Z,13.71
2022-10-14T06:21:35.225Z,13.72
2022-10-14T06:24:02.874Z,13.76
2022-10-14T06:26:30.563Z,13.76
2022-10-14T06:28:59.770Z,13.78
2022-10-14T06:31:32.045Z,13.73
2022-10-14T06:34:00.432Z,13.71
2022-10-14T06:36:28.125Z,13.71
2022-10-14T06:38:55.825Z,13.77
2022-10-14T06:41:23.927Z,13.84
2022-10-14T06:43:51.754Z,13.79
2022-10-14T06:46:20.785Z,13.77
2022-10-14T06:48:50.505Z,13.79
2022-10-14T06:51:18.405Z,13.85
2022-10-14T06:53:46.088Z,13.82
2022-10-14T06:56:13.777Z,13.76
2022-10-14T06:58:41.448Z,13.75
2022-10-14T07:01:09.877Z,13.76
2022-10-14T07:03:39.304Z,13.77
2022-10-14T07:06:08.798Z,13.78
2022-10-14T07:08:37.017Z,13.78
2022-10-14T07:11:06.095Z,13.77
2022-10-14T07:13:35.104Z,13.77
2022-10-14T07:16:03.234Z,13.74
2022-10-14T07:18:31.317Z,13.73
2022-10-14T07:21:04.494Z,13.70
2022-10-14T07:23:32.571Z,13.76
2022-10-14T07:26:01.265Z,13.76
2022-10-14T07:28:29.226Z,13.79
2022-10-14T07:31:01.741Z,13.85
2022-10-14T07:33:29.837Z,13.88
2022-10-14T07:36:03.801Z,13.89
2022-10-14T07:38:32.191Z,13.96
2022-10-14T07:41:03.142Z,14.02
2022-10-14T07:43:32.306Z,14.06
2022-10-14T07:46:02.697Z,14.10
2022-10-14T07:48:32.962Z,14.03
2022-10-14T07:51:14.475Z,14.03
2022-10-14T07:53:42.229Z,13.98
2022-10-14T07:56:09.985Z,13.93
2022-10-14T07:58:42.212Z,13.98
2022-10-14T08:01:12.199Z,14.00
2022-10-14T08:03:41.379Z,14.00
2022-10-14T08:06:09.727Z,14.01
2022-10-14T08:08:39.686Z,13.98
2022-10-14T08:11:11.578Z,13.95
2022-10-14T08:13:43.321Z,13.96
2022-10-14T08:16:16.421Z,14.04
2022-10-14T08:18:44.566Z,14.20
2022-10-14T08:21:12.571Z,14.21
2022-10-14T08:23:41.570Z,14.36
2022-10-14T08:26:19.910Z,14.32
2022-10-14T08:28:47.867Z,14.35
2022-10-14T08:31:15.665Z,14.38
2022-10-14T08:33:43.411Z,14.44
2022-10-14T08:36:11.494Z,14.43
2022-10-14T08:38:41.695Z,14.38
2022-10-14T08:41:25.949Z,14.45
2022-10-14T08:44:06.593Z,14.49
2022-10-14T08:46:39.364Z,14.53
2022-10-14T08:49:14.668Z,14.54
2022-10-14T08:51:46.092Z,14.55
2022-10-14T08:54:23.286Z,14.53
2022-10-14T08:56:51.071Z,14.54
2022-10-14T08:59:21.579Z,14.70
2022-10-14T09:01:52.921Z,14.91
2022-10-14T09:04:21.382Z,15.02
2022-10-14T09:06:51.210Z,15.16
2022-10-14T09:09:25.392Z,15.12
2022-10-14T09:11:57.822Z,15.20
2022-10-14T09:14:31.193Z,15.36
2022-10-14T09:17:04.643Z,15.39
2022-10-14T09:19:35.392Z,15.49
2022-10-14T09:22:03.105Z,15.59
2022-10-14T09:24:36.265Z,15.64
2022-10-14T09:27:06.701Z,15.79
2022-10-14T09:29:43.132Z,15.80
2022-10-14T09:32:16.982Z,15.69
2022-10-14T09:34:48.661Z,15.70
2022-10-14T09:37:26.462Z,15.64
2022-10-14T09:40:00.711Z,15.52
2022-10-14T09:42:41.640Z,15.46
2022-10-14T09:45:12.765Z,15.44
2022-10-14T09:47:47.170Z,15.43
2022-10-14T09:50:26.992Z,15.34
2022-10-14T09:53:01.412Z,15.29
2022-10-14T09:55:31.224Z,15.26
2022-10-14T09:58:05.160Z,15.22
2022-10-14T10:00:36.716Z,15.25
2022-10-14T10:03:05.786Z,15.21
2022-10-14T10:05:35.282Z,15.27
2022-10-14T10:08:16.090Z,15.35
2022-10-14T10:11:02.126Z,15.41
2022-10-14T10:13:45.407Z,15.45
2022-10-14T10:16:22.305Z,15.46
2022-10-14T10:18:51.780Z,15.48
2022-10-14T10:21:24.769Z,15.61
2022-10-14T10:23:58.266Z,15.70
2022-10-14T10:26:31.942Z,15.82
2022-10-14T10:29:02.443Z,15.88
2022-10-14T10:31:53.091Z,15.85
2022-10-14T10:34:40.439Z,15.80
2022-10-14T10:37:26.759Z,15.81
2022-10-14T10:40:09.848Z,15.88
2022-10-14T10:42:51.363Z,15.75
2022-10-14T10:45:35.564Z,15.71
2022-10-14T10:48:12.671Z,15.75
2022-10-14T10:50:48.406Z,15.81
2022-10-14T10:53:30.666Z,15.87
2022-10-14T10:56:21.730Z,15.91
2022-10-14T10:59:06.377Z,15.94
2022-10-14T11:01:41.244Z,15.96
2022-10-14T11:04:23.073Z,15.94
2022-10-14T11:07:15.761Z,15.87
2022-10-14T11:10:13.235Z,15.78
2022-10-14T11:12:53.525Z,15.90
2022-10-14T11:15:31.532Z,16.01
2022-10-14T11:18:05.236Z,16.13
2022-10-14T11:20:43.686Z,16.18
2022-10-14T11:23:35.765Z,16.28
2022-10-14T11:26:10.879Z,16.23
2022-10-14T11:28:46.977Z,16.23
2022-10-14T11:31:29.751Z,16.20
2022-10-14T11:34:12.831Z,16.21
2022-10-14T11:36:52.115Z,16.22
2022-10-14T11:39:31.957Z,16.35
2022-10-14T11:42:14.644Z,16.51
2022-10-14T11:44:44.017Z,16.48
2022-10-14T11:47:22.152Z,16.55
2022-10-14T11:49:57.253Z,16.57
2022-10-14T11:52:29.343Z,16.63
2022-10-14T11:55:03.962Z,16.81
2022-10-14T11:57:36.512Z,16.94
2022-10-14T12:00:24.362Z,16.98
2022-10-14T12:02:59.536Z,16.92
2022-10-14T12:05:38.047Z,16.86
2022-10-14T12:08:16.087Z,16.82
2022-10-14T12:10:47.455Z,16.73
2022-10-14T12:13:18.646Z,16.70
2022-10-14T12:15:51.295Z,16.61
2022-10-14T12:18:20.416Z,16.55
2022-10-14T12:20:56.296Z,16.47
2022-10-14T12:23:32.790Z,16.43
2022-10-14T12:26:07.888Z,16.47
2022-10-14T12:28:40.632Z,16.47
2022-10-14T12:31:22.386Z,16.50
2022-10-14T12:34:28.552Z,16.52
2022-10-14T12:36:56.274Z,16.57
2022-10-14T12:39:33.155Z,16.55
2022-10-14T12:42:04.103Z,16.52
2022-10-14T12:44:43.680Z,16.55
2022-10-14T12:47:21.678Z,16.54
2022-10-14T12:49:54.520Z,16.53
2022-10-14T12:52:26.472Z,16.52
2022-10-14T12:54:54.978Z,16.53
2022-10-14T12:57:29.582Z,16.57
2022-10-14T13:00:00.589Z,16.62
2022-10-14T13:02:33.359Z,16.66
2022-10-14T13:05:06.289Z,16.68
2022-10-14T13:07:44.230Z,16.67
2022-10-14T13:10:46.975Z,16.70
2022-10-14T13:13:53.603Z,16.72
2022-10-14T13:16:56.341Z,16.68
2022-10-14T13:19:46.983Z,16.69
2022-10-14T13:22:41.063Z,16.79
2022-10-14T13:25:16.669Z,16.79
2022-10-14T13:27:55.572Z,16.83
2022-10-14T13:30:34.147Z,16.85
2022-10-14T13:33:13.488Z,16.82
2022-10-14T13:35:49.925Z,16.82
2022-10-14T13:38:20.616Z,16.78
2022-10-14T13:40:50.883Z,16.79
2022-10-14T13:43:22.254Z,16.70
2022-10-14T13:45:54.171Z,16.65
2022-10-14T13:48:28.881Z,16.62
2022-10-14T13:51:24.405Z,16.62
2022-10-14T13:54:14.987Z,16.62
2022-10-14T13:56:43.030Z,16.62
2022-10-14T13:59:43.258Z,16.63
2022-10-14T14:02:15.483Z,16.63
2022-10-14T14:04:51.527Z,16.63
2022-10-14T14:07:47.661Z,16.67
2022-10-14T14:10:19.964Z,16.67
2022-10-14T14:12:48.103Z,16.63
2022-10-14T14:15:23.184Z,16.64
2022-10-14T14:17:50.835Z,16.65
2022-10-14T14:20:22.498Z,16.65
2022-10-14T14:22:51.157Z,16.60
2022-10-14T14:25:35.312Z,16.61
2022-10-14T14:28:06.885Z,16.62
2022-10-14T14:30:36.784Z,16.61
2022-10-14T14:33:08.242Z,16.54
2022-10-14T14:35:36.089Z,16.51
2022-10-14T14:38:04.229Z,16.48
2022-10-14T14:40:33.449Z,16.51
2022-10-14T14:43:03.943Z,16.52
2022-10-14T14:45:44.860Z,16.48
2022-10-14T14:48:16.442Z,16.44
2022-10-14T14:50:45.757Z,16.46
2022-10-14T14:53:18.222Z,16.46
2022-10-14T14:56:00.504Z,16.43
2022-10-14T14:58:33.634Z,16.42
2022-10-14T15:01:01.538Z,16.38
2022-10-14T15:03:32.924Z,16.41
2022-10-14T15:06:02.389Z,16.40
2022-10-14T15:08:32.679Z,16.39
2022-10-14T15:11:02.021Z,16.34
2022-10-14T15:13:33.596Z,16.33
2022-10-14T15:16:01.432Z,16.38
2022-10-14T15:18:30.409Z,16.38
2022-10-14T15:21:07.143Z,16.40
2022-10-14T15:23:41.176Z,16.39
2022-10-14T15:26:31.605Z,16.39
2022-10-14T15:29:12.259Z,16.39
2022-10-14T15:31:41.580Z,16.35
2022-10-14T15:34:18.465Z,16.30
2022-10-14T15:36:47.011Z,16.29
2022-10-14T15:39:14.785Z,16.31
2022-10-14T15:41:45.285Z,16.29
2022-10-14T15:44:13.149Z,16.24
2022-10-14T15:47:01.565Z,16.26
2022-10-14T15:49:31.843Z,16.26
2022-10-14T15:51:59.671Z,16.25
2022-10-14T15:54:27.624Z,16.24
2022-10-14T15:56:58.079Z,16.21
2022-10-14T15:59:26.815Z,16.20
2022-10-14T16:01:54.713Z,16.19
2022-10-14T16:04:25.618Z,16.17
2022-10-14T16:06:55.403Z,16.15
2022-10-14T16:09:23.517Z,16.17
2022-10-14T16:11:57.572Z,16.17
2022-10-14T16:14:27.852Z,16.17
2022-10-14T16:16:56.584Z,16.18
2022-10-14T16:19:30.670Z,16.16
2022-10-14T16:21:58.723Z,16.18
2022-10-14T16:24:26.600Z,16.18
2022-10-14T16:26:54.946Z,16.18
2022-10-14T16:29:22.903Z,16.12
2022-10-14T16:31:52.610Z,16.13
2022-10-14T16:34:22.487Z,16.12
2022-10-14T16:36:51.317Z,16.09
2022-10-14T16:39:20.825Z,16.07
2022-10-14T16:41:49.563Z,16.06
2022-10-14T16:44:25.346Z,16.08
2022-10-14T16:47:13.436Z,16.08
2022-10-14T16:49:41.599Z,16.09
2022-10-14T16:52:09.749Z,16.08
2022-10-14T16:54:37.818Z,16.07
2022-10-14T16:57:06.378Z,16.04
2022-10-14T16:59:34.341Z,16.08
2022-10-14T17:02:04.274Z,16.15
2022-10-14T17:04:31.976Z,16.18
2022-10-14T17:07:06.906Z,16.23
2022-10-14T17:09:35.806Z,16.18
2022-10-14T17:12:06.797Z,16.14
2022-10-14T17:14:37.513Z,16.09
2022-10-14T17:17:06.574Z,16.05
2022-10-14T17:19:34.254Z,16.05
2022-10-14T17:22:03.302Z,16.06
2022-10-14T17:24:31.490Z,16.02
2022-10-14T17:26:59.204Z,16.03
2022-10-14T17:29:28.517Z,16.04
2022-10-14T17:31:56.283Z,16.01
2022-10-14T17:34:25.376Z,15.99
2022-10-14T17:36:53.346Z,15.95
2022-10-14T17:39:27.467Z,15.92
2022-10-14T17:41:57.607Z,15.92
2022-10-14T17:44:25.649Z,15.84
2022-10-14T17:46:54.501Z,15.85
2022-10-14T17:49:22.242Z,15.85
2022-10-14T17:51:51.316Z,15.85
2022-10-14T17:54:19.001Z,15.86
2022-10-14T17:56:46.667Z,15.84
2022-10-14T17:59:14.496Z,15.82
2022-10-14T18:02:02.548Z,15.78
2022-10-14T18:04:30.186Z,15.78
2022-10-14T18:06:59.517Z,15.80
2022-10-14T18:09:27.457Z,15.71
2022-10-14T18:12:10.756Z,15.67
2022-10-14T18:14:38.764Z,15.66
2022-10-14T18:17:06.682Z,15.66
2022-10-14T18:19:34.835Z,15.65
2022-10-14T18:22:04.041Z,15.65
2022-10-14T18:24:32.265Z,15.63
2022-10-14T18:27:00.216Z,15.61
2022-10-14T18:29:27.958Z,15.58
2022-10-14T18:31:55.612Z,15.55
2022-10-14T18:34:25.295Z,15.57
2022-10-14T18:36:52.971Z,15.53
2022-10-14T18:39:22.026Z,15.47
2022-10-14T18:41:49.882Z,15.45
2022-10-14T18:44:17.684Z,15.46
2022-10-14T18:46:47.405Z,15.44
2022-10-14T18:49:15.425Z,15.45
2022-10-14T18:51:43.273Z,15.43
2022-10-14T18:54:15.145Z,15.42
2022-10-14T18:56:45.418Z,15.47
2022-10-14T18:59:15.990Z,15.61
2022-10-14T19:01:45.694Z,15.69
2022-10-14T19:04:16.146Z,15.71
2022-10-14T19:06:45.773Z,15.76
2022-10-14T19:09:13.859Z,15.75
2022-10-14T19:11:42.299Z,15.74
2022-10-14T19:14:13.047Z,15.76
2022-10-14T19:16:40.836Z,15.79
2022-10-14T19:19:11.625Z,15.79
2022-10-14T19:21:39.871Z,15.75
2022-10-14T19:24:09.045Z,15.69
2022-10-14T19:26:39.159Z,15.61
2022-10-14T19:29:11.466Z,15.57
2022-10-14T19:31:41.754Z,15.56
2022-10-14T19:34:12.543Z,15.55
2022-10-14T19:36:41.551Z,15.55
2022-10-14T19:39:12.532Z,15.54
2022-10-14T19:41:43.265Z,15.53
2022-10-14T19:44:11.534Z,15.51
2022-10-14T19:46:41.080Z,15.51
2022-10-14T19:49:08.841Z,15.45
2022-10-14T19:51:36.958Z,15.45
2022-10-14T19:54:05.080Z,15.45
2022-10-14T19:56:32.767Z,15.47
2022-10-14T19:59:01.649Z,15.51
2022-10-14T20:01:31.125Z,15.51
2022-10-14T20:04:02.935Z,15.48
2022-10-14T20:06:33.220Z,15.49
2022-10-14T20:09:01.361Z,15.49
2022-10-14T20:11:29.640Z,15.45
2022-10-14T20:13:57.625Z,15.45
2022-10-14T20:16:26.274Z,15.43
2022-10-14T20:18:54.123Z,15.40
2022-10-14T20:21:23.601Z,15.36
2022-10-14T20:23:51.320Z,15.35
2022-10-14T20:26:21.406Z,15.32
2022-10-14T20:28:49.373Z,15.36
2022-10-14T20:31:19.059Z,15.33
2022-10-14T20:33:47.443Z,15.33
2022-10-14T20:36:16.955Z,15.33
2022-10-14T20:38:47.143Z,15.35
2022-10-14T20:41:17.696Z,15.32
2022-10-14T20:43:46.451Z,15.32
2022-10-14T20:46:15.103Z,15.32
2022-10-14T20:48:43.244Z,15.35
2022-10-14T20:51:13.163Z,15.33
2022-10-14T20:56:15.236Z,15.34
2022-10-14T20:58:43.028Z,15.32
2022-10-14T21:01:13.058Z,15.37
2022-10-14T21:03:42.073Z,15.46
2022-10-14T21:06:11.615Z,15.55
2022-10-14T21:08:40.401Z,15.57
2022-10-14T21:11:14.080Z,15.53
2022-10-14T21:13:47.054Z,15.46
2022-10-14T21:16:17.076Z,15.44
2022-10-14T21:18:48.215Z,15.42
2022-10-14T21:21:16.991Z,15.41
2022-10-14T21:23:46.867Z,15.35
2022-10-14T21:26:14.989Z,15.31
2022-10-14T21:28:43.171Z,15.35
2022-10-14T21:31:17.349Z,15.37
2022-10-14T21:33:46.982Z,15.37
2022-10-14T21:36:16.655Z,15.38
2022-10-14T21:38:44.809Z,15.38
2022-10-14T21:41:12.642Z,15.35
2022-10-14T21:43:40.757Z,15.32
2022-10-14T21:46:10.490Z,15.35
2022-10-14T21:48:40.184Z,15.36
2022-10-14T21:51:10.269Z,15.35
2022-10-14T21:53:38.648Z,15.36
2022-10-14T21:56:07.105Z,15.35
2022-10-14T21:58:34.961Z,15.27
2022-10-14T22:01:05.656Z,15.28
2022-10-14T22:03:33.856Z,15.31
2022-10-14T22:08:35.547Z,15.32
2022-10-14T22:11:03.887Z,15.29
2022-10-14T22:13:32.385Z,15.31
2022-10-14T22:16:00.420Z,15.26
2022-10-14T22:18:28.399Z,15.25
2022-10-14T22:21:01.613Z,15.17
2022-10-14T22:23:30.681Z,15.09
2022-10-14T22:26:00.372Z,15.08
2022-10-14T22:28:28.670Z,15.04
2022-10-14T22:30:57.672Z,15.05
2022-10-14T22:33:25.372Z,15.06
2022-10-14T22:35:53.056Z,15.05
2022-10-14T22:38:21.781Z,15.09
2022-10-14T22:40:50.720Z,15.10
2022-10-14T22:43:18.391Z,15.09
2022-10-14T22:45:46.160Z,15.11
2022-10-14T22:48:14.033Z,15.12
2022-10-14T22:50:41.822Z,15.16
2022-10-14T22:53:09.506Z,15.16
2022-10-14T22:55:37.151Z,15.13
2022-10-14T22:58:06.162Z,15.14
2022-10-14T23:00:34.291Z,15.14
2022-10-14T23:03:02.095Z,15.12
2022-10-14T23:05:30.605Z,15.15
2022-10-14T23:07:58.279Z,15.16
2022-10-14T23:10:25.906Z,15.20
2022-10-14T23:12:53.682Z,15.25
2022-10-14T23:15:22.663Z,15.26
2022-10-14T23:17:50.309Z,15.24
2022-10-14T23:20:18.178Z,15.24
2022-10-14T23:22:45.893Z,15.23
2022-10-14T23:25:13.844Z,15.25
2022-10-14T23:27:41.516Z,15.24
2022-10-14T23:30:10.138Z,15.22
2022-10-14T23:32:39.242Z,15.22
2022-10-14T23:35:07.501Z,15.23
2022-10-14T23:37:35.147Z,15.24
2022-10-14T23:40:04.692Z,15.25
2022-10-14T23:42:32.328Z,15.25
2022-10-14T23:44:59.995Z,15.21
2022-10-14T23:47:27.664Z,15.19
2022-10-14T23:49:56.634Z,15.19
2022-10-14T23:52:24.425Z,15.19
2022-10-14T23:54:52.090Z,15.16
2022-10-14T23:57:20.639Z,15.18
2022-10-14T23:59:48.535Z,15.20
